Time;durP1;ratioP1;P1;durP2;ratioP2;P2;SDS_P1;SDS_P2;PMS_P1;PMS_P2;Temp;Humidity;BMP_temperature;BMP_pressure;BME280_temperature;BME280_humidity;BME280_pressure;Samples;Min_cycle;Max_cycle;Signal;HPM_P1;HPM_P2
2022/01/31 00:01:31;;;;;;;23.85;5.32;;;;;;;5.02;78.37;101467.94;5023707;28;20040;-55
2022/01/31 00:03:56;;;;;;;23.77;5.50;;;;;;;4.92;79.68;101458.38;5018815;28;20053;-55
2022/01/31 00:06:21;;;;;;;30.95;6.40;;;;;;;4.91;79.98;101451.41;5008967;28;20034;-55
2022/01/31 00:08:47;;;;;;;20.17;5.80;;;;;;;4.75;80.77;101440.97;5008814;28;20045;-56
2022/01/31 00:11:12;;;;;;;27.70;7.10;;;;;;;4.77;80.89;101433.13;5009182;28;20045;-55
2022/01/31 00:13:43;;;;;;;26.67;6.63;;;;;;;4.79;80.94;101423.56;5008829;28;20029;-56
2022/01/31 00:16:13;;;;;;;29.17;7.82;;;;;;;4.64;81.70;101414.00;5016805;28;20026;-55
2022/01/31 00:18:40;;;;;;;28.65;7.82;;;;;;;4.64;82.17;101406.16;5028158;28;20491;-55
2022/01/31 00:21:06;;;;;;;19.75;6.53;;;;;;;4.63;82.19;101412.22;5015852;28;20030;-56
2022/01/31 00:23:31;;;;;;;36.05;8.63;;;;;;;4.64;82.66;101399.19;5047495;28;20033;-57
2022/01/31 00:25:56;;;;;;;29.20;8.20;;;;;;;4.67;82.94;101395.72;5025724;28;20447;-51
2022/01/31 00:28:21;;;;;;;25.20;8.13;;;;;;;4.65;83.22;101382.66;4992216;28;20596;-55
2022/01/31 00:30:47;;;;;;;33.00;9.20;;;;;;;4.52;83.67;101373.94;5008357;28;20064;-52
2022/01/31 00:33:13;;;;;;;21.02;9.27;;;;;;;4.53;84.01;101356.56;5008465;28;20030;-57
2022/01/31 00:35:38;;;;;;;28.38;9.65;;;;;;;4.54;84.19;101355.69;5008801;28;20076;-56
2022/01/31 00:38:03;;;;;;;29.13;10.13;;;;;;;4.55;84.32;101337.41;5018914;28;20564;-53
2022/01/31 00:40:29;;;;;;;23.55;10.05;;;;;;;4.58;84.33;101340.91;5010177;28;20072;-56
2022/01/31 00:42:54;;;;;;;26.77;10.75;;;;;;;4.47;84.63;101333.94;5021493;28;20036;-56
2022/01/31 00:45:30;;;;;;;40.25;11.82;;;;;;;4.48;84.69;101311.34;5022692;28;20087;-56
2022/01/31 00:48:04;;;;;;;29.38;11.52;;;;;;;4.45;85.14;101314.81;5014885;28;20054;-55
2022/01/31 00:50:37;;;;;;;26.83;11.27;;;;;;;4.56;84.71;101296.53;5007827;28;20036;-54
2022/01/31 00:53:02;;;;;;;31.92;11.48;;;;;;;4.48;85.35;101295.69;5007787;28;20105;-54
2022/01/31 00:55:28;;;;;;;31.27;12.25;;;;;;;4.50;85.09;101279.16;5008201;28;20110;-53
2022/01/31 00:57:53;;;;;;;20.67;9.48;;;;;;;4.53;85.24;101265.22;5018556;28;20044;-57
2022/01/31 01:00:18;;;;;;;20.30;8.15;;;;;;;4.59;84.86;101259.09;5024285;28;20087;-53
2022/01/31 01:02:44;;;;;;;25.83;8.25;;;;;;;4.53;85.25;101234.78;5012052;28;20067;-54
2022/01/31 01:05:09;;;;;;;18.88;7.47;;;;;;;4.59;85.37;101239.09;5021721;28;20056;-54
2022/01/31 01:07:35;;;;;;;21.35;7.10;;;;;;;4.63;85.14;101225.16;5013987;28;20072;-54
2022/01/31 01:10:00;;;;;;;22.88;6.97;;;;;;;4.66;85.47;101226.88;5007343;28;20108;-54
2022/01/31 01:12:25;;;;;;;19.55;6.25;;;;;;;4.68;85.66;101199.94;5007210;28;20033;-53
2022/01/31 01:14:52;;;;;;;23.55;6.68;;;;;;;4.66;85.88;101204.28;5007438;28;20030;-53
2022/01/31 01:17:18;;;;;;;15.85;5.57;;;;;;;4.71;85.79;101199.03;5022342;28;20044;-54
2022/01/31 01:19:43;;;;;;;19.40;5.82;;;;;;;4.73;85.74;101181.59;5026557;28;20373;-55
2022/01/31 01:22:09;;;;;;;18.45;5.82;;;;;;;4.79;86.03;101141.59;5026959;28;20018;-54
2022/01/31 01:24:34;;;;;;;16.25;5.20;;;;;;;4.80;86.11;101156.34;5025844;28;20092;-55
2022/01/31 01:27:00;;;;;;;14.48;4.88;;;;;;;4.82;86.18;101183.34;5020070;28;20472;-54
2022/01/31 01:29:25;;;;;;;13.95;4.30;;;;;;;4.86;86.33;101158.06;5008711;28;20030;-56
2022/01/31 01:31:51;;;;;;;13.98;4.70;;;;;;;4.88;86.54;101151.09;5007550;28;20029;-56
2022/01/31 01:34:17;;;;;;;13.38;4.45;;;;;;;4.90;86.76;101138.88;5024578;28;20025;-57
2022/01/31 01:36:45;;;;;;;23.95;5.13;;;;;;;4.95;86.95;101147.59;5028944;28;20036;-54
2022/01/31 01:39:10;;;;;;;21.08;4.63;;;;;;;5.05;86.78;101143.16;5021703;28;20021;-52
2022/01/31 01:41:36;;;;;;;12.20;3.40;;;;;;;5.12;86.92;101157.06;5025583;28;20026;-53
2022/01/31 01:44:01;;;;;;;11.15;3.72;;;;;;;5.14;86.96;101137.00;5026696;28;20563;-55
2022/01/31 01:46:26;;;;;;;16.83;3.90;;;;;;;5.21;86.98;101133.47;5018041;28;20030;-53
2022/01/31 01:48:52;;;;;;;16.13;4.43;;;;;;;5.29;87.08;101116.00;5005798;28;20033;-56
2022/01/31 01:51:17;;;;;;;17.70;4.88;;;;;;;5.35;87.10;101091.56;5006857;28;20148;-54
2022/01/31 01:53:42;;;;;;;25.38;4.72;;;;;;;5.49;87.10;101108.91;5007246;28;20044;-55
2022/01/31 01:56:08;;;;;;;34.72;4.32;;;;;;;5.62;86.66;101099.19;5011292;28;20029;-55
2022/01/31 01:58:41;;;;;;;35.20;4.47;;;;;;;5.73;86.12;101092.13;5019545;28;20025;-57
2022/01/31 02:01:08;;;;;;;38.47;5.90;;;;;;;5.88;85.31;101098.09;5018777;28;20037;-56
2022/01/31 02:03:35;;;;;;;27.17;4.50;;;;;;;5.98;84.13;101091.88;5015143;28;20113;-56
2022/01/31 02:06:01;;;;;;;26.00;5.20;;;;;;;6.09;83.22;101091.81;5015322;28;20734;-56
2022/01/31 02:08:38;;;;;;;20.38;3.70;;;;;;;6.15;82.49;101083.88;5006999;28;20018;-54
2022/01/31 02:11:03;;;;;;;21.67;4.25;;;;;;;6.19;81.46;101093.44;5005010;28;20046;-55
2022/01/31 02:13:29;;;;;;;22.52;3.42;;;;;;;6.25;80.70;101070.66;5044824;28;20086;-54
2022/01/31 02:15:54;;;;;;;24.50;3.75;;;;;;;6.28;80.72;101058.44;5044053;28;20021;-54
2022/01/31 02:18:24;;;;;;;14.82;2.80;;;;;;;6.28;80.79;101075.88;5045216;28;20082;-56
2022/01/31 02:20:49;;;;;;;24.35;4.45;;;;;;;6.29;80.56;101064.53;5034056;28;20468;-56
2022/01/31 02:23:15;;;;;;;25.40;4.15;;;;;;;6.37;80.21;101074.88;5033840;28;20028;-55
2022/01/31 02:25:56;;;;;;;26.30;4.03;;;;;;;6.34;80.44;101085.41;5028517;28;20418;-55
2022/01/31 02:28:23;;;;;;;23.30;3.00;;;;;;;6.35;79.60;101056.59;5014522;28;20108;-55
2022/01/31 02:30:49;;;;;;;21.75;3.05;;;;;;;6.32;79.45;101075.81;5019474;28;20037;-52
2022/01/31 02:33:14;;;;;;;24.58;3.22;;;;;;;6.29;78.81;101052.31;5008449;28;20025;-57
2022/01/31 02:35:40;;;;;;;19.45;3.15;;;;;;;6.29;78.75;101046.22;5006789;28;20504;-57
2022/01/31 02:38:05;;;;;;;20.02;3.50;;;;;;;6.35;78.27;101048.72;5015877;28;20392;-55
2022/01/31 02:40:31;;;;;;;22.00;2.90;;;;;;;6.36;78.07;101053.09;5024866;28;20033;-52
2022/01/31 02:42:56;;;;;;;18.08;3.25;;;;;;;6.36;76.87;101039.13;5026002;28;20025;-52
2022/01/31 02:45:21;;;;;;;20.25;2.70;;;;;;;6.43;77.24;101036.44;5029218;28;20112;-54
2022/01/31 02:47:53;;;;;;;22.98;3.75;;;;;;;6.40;76.77;101065.25;5024511;28;20056;-55
2022/01/31 02:50:19;;;;;;;16.05;3.45;;;;;;;6.45;76.25;101057.34;5023905;28;20087;-54
2022/01/31 02:52:48;;;;;;;18.52;3.30;;;;;;;6.49;75.59;101021.50;5025270;28;20488;-54
2022/01/31 02:55:15;;;;;;;19.52;3.17;;;;;;;6.46;75.93;101035.50;5025237;28;20029;-53
2022/01/31 02:57:40;;;;;;;17.13;2.53;;;;;;;6.43;75.76;101033.81;5018979;28;20033;-55
2022/01/31 03:00:07;;;;;;;25.90;3.03;;;;;;;6.39;75.56;101026.00;5021045;28;20414;-52
2022/01/31 03:02:32;;;;;;;14.38;2.97;;;;;;;6.40;74.88;101036.47;5025334;28;20109;-52
2022/01/31 03:04:58;;;;;;;24.40;3.38;;;;;;;6.41;74.80;101040.81;5019999;28;20492;-54
2022/01/31 03:07:23;;;;;;;28.63;3.45;;;;;;;6.37;75.02;101027.78;5012156;28;20452;-51
2022/01/31 03:09:48;;;;;;;23.00;3.55;;;;;;;6.35;74.28;101000.78;5045192;28;20140;-54
2022/01/31 03:12:14;;;;;;;19.05;2.70;;;;;;;6.23;74.57;101027.97;5044955;28;20490;-54
2022/01/31 03:14:42;;;;;;;13.63;2.25;;;;;;;6.22;73.62;101019.25;5045277;28;20395;-54
2022/01/31 03:17:08;;;;;;;23.42;2.50;;;;;;;6.18;73.97;101028.03;5044748;28;20035;-56
2022/01/31 03:19:38;;;;;;;17.35;2.75;;;;;;;6.19;73.78;101033.25;5045716;28;20052;-52
2022/01/31 03:22:03;;;;;;;;;;;;;;;6.16;73.62;101017.56;5029738;28;20026;-52
2022/01/31 03:24:28;;;;;;;23.20;3.03;;;;;;;6.18;73.81;101005.31;5012306;28;20365;-52
2022/01/31 03:26:53;;;;;;;18.70;3.08;;;;;;;6.15;73.36;101020.22;5016401;28;20029;-53
2022/01/31 03:29:19;;;;;;;16.85;3.42;;;;;;;6.11;73.37;101005.44;5027756;28;20029;-54
2022/01/31 03:31:44;;;;;;;12.15;2.10;;;;;;;6.17;73.32;100976.59;5024462;28;20025;-59
2022/01/31 03:34:10;;;;;;;13.13;2.70;;;;;;;6.19;73.47;101008.81;5024331;28;20029;-54
2022/01/31 03:36:35;;;;;;;20.65;2.72;;;;;;;6.16;73.46;100998.38;5014523;28;20451;-51
2022/01/31 03:39:01;;;;;;;15.23;2.83;;;;;;;6.22;72.49;101003.53;5025151;28;20021;-53
2022/01/31 03:41:26;;;;;;;14.18;3.05;;;;;;;6.32;72.11;100991.19;5005592;28;20057;-55
2022/01/31 03:43:52;;;;;;;25.42;3.65;;;;;;;6.37;71.40;101017.31;5011323;28;20064;-50
2022/01/31 03:46:17;;;;;;;23.75;3.10;;;;;;;6.47;71.17;101032.00;5018319;28;20037;-55
2022/01/31 03:48:44;;;;;;;12.93;2.47;;;;;;;6.50;71.10;101011.00;5018867;28;20065;-50
2022/01/31 03:51:09;;;;;;;25.90;3.88;;;;;;;6.51;70.79;100994.44;5024681;28;20512;-55
2022/01/31 03:53:34;;;;;;;24.55;2.97;;;;;;;6.53;71.10;100982.19;5024191;28;20037;-54
2022/01/31 03:56:00;;;;;;;14.70;2.72;;;;;;;6.43;70.51;101039.03;5023122;28;20026;-54
2022/01/31 03:58:25;;;;;;;19.52;3.20;;;;;;;6.51;70.21;100962.16;5018478;28;20105;-56
2022/01/31 04:00:51;;;;;;;15.50;4.03;;;;;;;6.51;69.46;100965.66;5019040;28;20148;-53
2022/01/31 04:03:16;;;;;;;16.75;2.70;;;;;;;6.52;69.88;100984.81;5011763;28;20424;-52
2022/01/31 04:05:42;;;;;;;17.23;3.08;;;;;;;6.53;69.52;100960.38;5028408;28;20840;-54
2022/01/31 04:08:08;;;;;;;21.38;2.78;;;;;;;6.49;69.46;100993.59;5027766;28;20036;-50
2022/01/31 04:10:34;;;;;;;15.95;2.65;;;;;;;6.51;68.76;100967.38;5028694;28;20412;-54
2022/01/31 04:13:00;;;;;;;16.05;2.90;;;;;;;6.54;68.56;100985.66;5027976;28;20419;-54
2022/01/31 04:15:25;;;;;;;17.88;2.42;;;;;;;6.51;68.25;100999.69;5027849;28;20029;-53
2022/01/31 04:17:50;;;;;;;16.40;2.65;;;;;;;6.52;68.34;100969.97;5024366;28;20026;-53
2022/01/31 04:20:17;;;;;;;20.33;3.00;;;;;;;6.47;68.16;100992.72;5018070;28;20061;-53
2022/01/31 04:22:50;;;;;;;12.48;3.05;;;;;;;6.56;68.16;100942.84;5021806;28;20025;-54
2022/01/31 04:28:04;;;;;;;14.65;3.33;;;;;;;6.54;68.50;100957.72;5008212;28;20032;-51
2022/01/31 04:30:37;;;;;;;17.88;2.80;;;;;;;6.52;68.14;100974.34;5018418;28;20459;-53
2022/01/31 04:33:03;;;;;;;17.98;2.45;;;;;;;6.50;68.08;100965.66;5026353;28;20113;-54
2022/01/31 04:35:28;;;;;;;16.10;2.60;;;;;;;6.53;67.01;101007.50;5027814;28;20108;-52
2022/01/31 04:37:54;;;;;;;17.77;2.83;;;;;;;6.57;67.35;100969.91;5027995;28;20040;-54
2022/01/31 04:40:19;;;;;;;18.60;3.30;;;;;;;6.54;67.09;100962.94;5020132;28;20128;-54
2022/01/31 04:42:45;;;;;;;14.18;3.63;;;;;;;6.64;67.24;100944.50;5018540;28;20025;-54
2022/01/31 04:45:11;;;;;;;18.63;3.00;;;;;;;6.55;67.36;100956.84;5021844;28;20076;-53
2022/01/31 04:47:37;;;;;;;16.92;3.58;;;;;;;6.57;68.16;100946.34;5025979;28;20033;-54
2022/01/31 04:50:04;;;;;;;16.92;2.78;;;;;;;6.44;68.39;100948.28;5027479;28;20033;-54
2022/01/31 04:52:30;;;;;;;19.80;2.97;;;;;;;6.41;68.36;100949.19;5027308;28;20030;-55
2022/01/31 04:54:55;;;;;;;14.10;2.65;;;;;;;6.31;69.48;100940.63;5027020;28;20087;-54
2022/01/31 04:57:21;;;;;;;22.38;3.53;;;;;;;6.09;70.14;100981.03;5024669;28;20052;-56
2022/01/31 04:59:48;;;;;;;17.27;3.20;;;;;;;5.79;72.68;101021.47;5016086;28;20559;-53
2022/01/31 05:02:13;;;;;;;14.52;3.15;;;;;;;5.57;74.04;100977.25;5025330;28;20068;-53
2022/01/31 05:04:39;;;;;;;11.88;2.33;;;;;;;5.47;74.23;100978.22;5010595;28;20495;-53
2022/01/31 05:07:04;;;;;;;22.00;3.33;;;;;;;5.34;75.47;101011.47;5015515;28;20034;-52
2022/01/31 05:09:29;;;;;;;17.55;2.70;;;;;;;5.26;75.80;100959.28;5009921;28;20053;-53
2022/01/31 05:11:55;;;;;;;16.00;2.38;;;;;;;5.27;76.17;100952.31;5025633;28;20510;-55
2022/01/31 05:14:20;;;;;;;13.82;2.78;;;;;;;5.30;75.92;100955.72;5027655;28;20472;-50
2022/01/31 05:16:45;;;;;;;24.17;3.22;;;;;;;5.39;76.09;100938.25;5026551;28;20068;-55
2022/01/31 05:19:11;;;;;;;22.20;2.63;;;;;;;5.42;75.27;100954.75;5027142;28;20486;-50
2022/01/31 05:21:38;;;;;;;18.30;3.10;;;;;;;5.48;75.60;100943.34;5027436;28;20025;-54
2022/01/31 05:24:03;;;;;;;34.72;4.25;;;;;;;5.53;74.63;100945.91;5027354;28;20057;-54
2022/01/31 05:26:29;;;;;;;22.60;2.75;;;;;;;5.60;72.71;100937.13;5027038;28;20710;-55
2022/01/31 05:28:54;;;;;;;18.85;4.22;;;;;;;5.61;72.09;100923.19;5026826;28;20025;-54
2022/01/31 05:31:19;;;;;;;27.70;3.55;;;;;;;5.71;71.83;100949.19;5025405;28;20095;-52
2022/01/31 05:33:45;;;;;;;13.10;3.10;;;;;;;5.79;71.43;100926.47;5026361;28;20488;-54
2022/01/31 05:36:10;;;;;;;25.80;2.92;;;;;;;5.78;71.31;100922.97;5026416;28;20528;-51
2022/01/31 05:38:38;;;;;;;27.02;4.28;;;;;;;5.81;71.40;100933.38;5022823;28;20384;-53
2022/01/31 05:41:07;;;;;;;24.08;3.22;;;;;;;5.91;71.06;100951.59;5026429;28;20029;-53
2022/01/31 05:43:32;;;;;;;20.75;3.95;;;;;;;5.92;69.88;100927.16;5020859;28;20038;-54
2022/01/31 05:45:58;;;;;;;29.05;3.75;;;;;;;5.96;70.49;100959.38;5027084;28;20033;-53
2022/01/31 05:48:23;;;;;;;28.45;4.05;;;;;;;5.95;70.07;100937.59;5024709;28;20048;-55
2022/01/31 05:50:48;;;;;;;26.77;3.60;;;;;;;5.97;70.41;100963.72;5026397;28;20075;-54
2022/01/31 05:53:14;;;;;;;33.53;5.03;;;;;;;5.92;71.17;100929.78;5026151;28;20033;-54
2022/01/31 05:55:40;;;;;;;22.95;4.32;;;;;;;5.91;71.54;100914.97;5027930;28;20487;-55
2022/01/31 05:58:06;;;;;;;32.42;5.07;;;;;;;5.79;70.72;100935.19;5026105;28;20022;-51
2022/01/31 06:00:32;;;;;;;18.42;3.30;;;;;;;5.80;70.20;100926.44;5026555;28;20029;-53
2022/01/31 06:02:58;;;;;;;30.63;4.78;;;;;;;5.87;69.99;100939.44;5022430;28;20025;-53
2022/01/31 06:05:24;;;;;;;25.27;4.38;;;;;;;5.89;70.57;100908.88;5024789;28;20687;-54
2022/01/31 06:07:50;;;;;;;26.25;3.80;;;;;;;5.93;69.62;100961.13;5026039;28;20029;-56
2022/01/31 06:10:16;;;;;;;24.50;3.05;;;;;;;5.96;69.78;100928.84;5024166;28;20113;-55
2022/01/31 06:12:42;;;;;;;28.55;4.30;;;;;;;6.09;69.02;100897.31;5025033;28;20077;-53
2022/01/31 06:15:07;;;;;;;26.17;4.30;;;;;;;6.15;68.59;100910.31;5023163;28;20108;-52
2022/01/31 06:17:32;;;;;;;24.92;3.85;;;;;;;6.17;68.72;100955.66;5021482;28;20472;-55
2022/01/31 06:19:58;;;;;;;28.15;3.78;;;;;;;6.20;68.19;100905.88;5020545;28;20066;-53
2022/01/31 06:22:23;;;;;;;33.10;3.85;;;;;;;6.25;68.04;100898.84;5022710;28;20029;-53
2022/01/31 06:24:48;;;;;;;41.67;5.13;;;;;;;6.24;68.40;100935.50;5022392;28;20029;-53
2022/01/31 06:27:16;;;;;;;33.28;4.25;;;;;;;6.25;68.39;100917.16;5019287;28;20041;-52
2022/01/31 06:29:41;;;;;;;18.02;3.38;;;;;;;6.23;68.45;100915.44;5010324;28;20572;-54
2022/01/31 06:32:06;;;;;;;34.55;3.63;;;;;;;6.28;68.18;100961.59;5005850;28;20113;-50
2022/01/31 06:34:32;;;;;;;18.10;3.40;;;;;;;6.21;67.76;100948.63;5016628;28;20040;-51
2022/01/31 06:36:57;;;;;;;29.55;4.50;;;;;;;6.27;67.91;100928.47;5018848;28;20034;-49
2022/01/31 06:39:23;;;;;;;24.10;4.68;;;;;;;6.14;69.16;100966.16;5015340;28;20018;-51
2022/01/31 06:41:48;;;;;;;27.67;3.83;;;;;;;5.79;71.87;100992.72;5006622;28;20029;-51
2022/01/31 06:44:13;;;;;;;38.40;4.80;;;;;;;5.51;74.67;100979.91;5022337;28;20495;-49
2022/01/31 06:46:39;;;;;;;19.20;3.20;;;;;;;5.21;74.92;100975.88;5025863;28;20108;-51
2022/01/31 06:49:04;;;;;;;20.55;3.90;;;;;;;5.05;76.05;100997.78;5024278;28;20021;-53
2022/01/31 06:51:30;;;;;;;30.98;3.90;;;;;;;4.96;77.98;100970.88;5025880;28;20017;-53
2022/01/31 06:53:57;;;;;;;30.98;5.20;;;;;;;4.79;79.56;100983.16;5024912;28;20025;-54
2022/01/31 06:56:29;;;;;;;27.42;3.45;;;;;;;4.76;79.66;100962.28;5025628;28;20037;-51
2022/01/31 06:58:54;;;;;;;30.00;4.20;;;;;;;4.76;80.16;100985.78;5026347;28;20025;-54
2022/01/31 07:01:24;;;;;;;31.05;3.95;;;;;;;4.85;79.58;100965.72;5026095;28;20033;-53
2022/01/31 07:03:50;;;;;;;32.78;5.50;;;;;;;4.90;78.60;100946.53;5019972;28;20026;-51
2022/01/31 07:06:15;;;;;;;44.40;5.13;;;;;;;4.94;78.70;100973.50;5025548;28;20581;-52
2022/01/31 07:08:40;;;;;;;28.17;4.72;;;;;;;4.99;77.74;100973.44;5025262;28;20112;-52
2022/01/31 07:11:05;;;;;;;27.40;4.15;;;;;;;5.01;78.16;100975.19;5025363;28;20037;-53
2022/01/31 07:15:56;;;;;;;37.97;5.28;;;;;;;5.09;77.44;100997.75;5025769;28;20120;-49
2022/01/31 07:18:21;;;;;;;39.35;4.72;;;;;;;5.14;77.88;100954.16;5025339;28;20416;-53
2022/01/31 07:20:51;;;;;;;35.08;4.88;;;;;;;5.15;77.40;100976.81;5025524;28;20574;-52
2022/01/31 07:26:01;;;;;;;40.70;6.53;;;;;;;5.24;76.77;100955.78;5008429;28;19918;-50
2022/01/31 07:28:27;;;;;;;27.48;4.50;;;;;;;5.23;75.67;100956.69;5016430;28;20116;-48
2022/01/31 07:30:52;;;;;;;28.15;4.30;;;;;;;5.30;75.94;100957.50;5021145;28;20118;-49
2022/01/31 07:33:19;;;;;;;38.85;5.50;;;;;;;5.31;75.94;100994.06;5013577;28;20468;-52
2022/01/31 07:35:48;;;;;;;36.00;4.38;;;;;;;5.34;77.12;101002.75;5015831;28;20026;-56
2022/01/31 07:38:13;;;;;;;20.65;3.95;;;;;;;5.23;77.05;101000.22;5019589;28;20036;-50
2022/01/31 07:40:39;;;;;;;34.60;4.40;;;;;;;5.10;78.37;100989.91;5019376;28;20009;-50
2022/01/31 07:43:05;;;;;;;31.27;4.32;;;;;;;5.03;79.08;100962.94;5019774;28;20377;-49
2022/01/31 07:45:30;;;;;;;46.42;6.10;;;;;;;5.00;78.73;100986.47;5019405;28;20017;-51
2022/01/31 07:47:56;;;;;;;32.10;4.47;;;;;;;5.08;77.37;101069.16;5022356;28;20033;-51
2022/01/31 07:50:21;;;;;;;42.80;4.80;;;;;;;5.16;76.44;100966.34;5020764;28;20037;-51
2022/01/31 07:52:47;;;;;;;29.98;4.88;;;;;;;5.21;75.75;100995.00;5016954;28;20014;-54
2022/01/31 07:55:12;;;;;;;26.48;4.95;;;;;;;5.26;74.59;101079.47;5018740;28;20164;-50
2022/01/31 07:57:40;;;;;;;23.80;3.88;;;;;;;5.30;75.08;101056.78;5025113;28;20030;-49
2022/01/31 08:00:07;;;;;;;42.55;5.25;;;;;;;5.31;75.76;101012.38;5027777;28;20732;-52
2022/01/31 08:02:32;;;;;;;38.83;4.90;;;;;;;5.27;75.63;101031.53;5024734;28;20511;-48
2022/01/31 08:04:58;;;;;;;33.33;4.60;;;;;;;5.33;74.73;101053.28;5018215;28;20078;-53
2022/01/31 08:07:23;;;;;;;26.92;5.75;;;;;;;5.42;74.59;101006.16;5017487;28;20075;-48
2022/01/31 08:09:49;;;;;;;41.33;5.13;;;;;;;5.47;73.44;101035.72;5016316;28;20041;-52
2022/01/31 08:12:14;;;;;;;36.88;5.10;;;;;;;5.59;73.10;100992.03;5018467;28;20036;-53
2022/01/31 08:14:40;;;;;;;40.42;5.05;;;;;;;5.59;73.46;100976.34;5016259;28;20026;-52
2022/01/31 08:17:05;;;;;;;27.63;4.70;;;;;;;5.54;74.63;101011.25;5017266;28;20044;-52
2022/01/31 08:19:31;;;;;;;24.63;4.75;;;;;;;5.44;76.01;101012.22;5019252;28;20541;-49
2022/01/31 08:21:56;;;;;;;32.72;4.63;;;;;;;5.41;76.50;101025.31;5025226;28;20017;-54
2022/01/31 08:24:21;;;;;;;35.63;4.18;;;;;;;5.35;76.19;101038.44;5027804;28;20076;-49
2022/01/31 08:26:47;;;;;;;30.10;4.47;;;;;;;5.28;76.30;101072.47;5027886;28;20461;-50
2022/01/31 08:29:25;;;;;;;30.17;3.90;;;;;;;5.22;76.12;101051.63;5004594;28;20033;-51
2022/01/31 08:31:53;;;;;;;37.53;5.35;;;;;;;5.19;75.74;101046.44;5002808;28;20048;-50
2022/01/31 08:34:24;;;;;;;41.78;5.63;;;;;;;5.22;76.14;101022.88;5002766;28;20034;-50
2022/01/31 08:36:50;;;;;;;37.25;5.03;;;;;;;5.19;76.12;101038.59;5004408;28;20033;-50
2022/01/31 08:39:18;;;;;;;41.08;5.18;;;;;;;5.20;76.11;101042.91;5004314;28;20353;-49
2022/01/31 08:41:47;;;;;;;37.60;5.05;;;;;;;5.22;76.58;101041.19;5004481;28;20476;-49
2022/01/31 08:44:17;;;;;;;33.05;3.78;;;;;;;5.22;75.81;101095.16;5002731;28;20457;-50
2022/01/31 08:46:44;;;;;;;37.55;4.47;;;;;;;5.26;74.65;101042.88;5003859;28;20017;-50
2022/01/31 08:49:10;;;;;;;41.65;5.60;;;;;;;5.31;74.84;101045.47;4999851;28;20451;-50
2022/01/31 08:51:37;;;;;;;34.63;5.20;;;;;;;5.35;74.70;101047.16;5002469;28;20025;-51
2022/01/31 08:54:05;;;;;;;41.88;6.07;;;;;;;5.41;73.83;101065.41;5002475;28;20113;-56
2022/01/31 08:56:35;;;;;;;39.08;5.28;;;;;;;5.47;73.99;101046.19;5003096;28;20114;-48
2022/01/31 08:59:00;;;;;;;;;;;;;;;5.51;73.33;101125.44;5002993;28;20569;-51
2022/01/31 09:01:25;;;;;;;38.97;6.30;;;;;;;5.55;73.32;101067.91;5000940;28;19917;-50
2022/01/31 09:06:17;;;;;;;50.65;7.43;;;;;;;5.55;74.99;101087.94;5003031;28;20029;-49
2022/01/31 09:08:42;;;;;;;49.50;8.02;;;;;;;5.43;75.87;101081.06;5003906;28;20113;-52
2022/01/31 09:11:09;;;;;;;48.03;6.95;;;;;;;5.35;77.95;101081.13;5003411;28;20055;-51
2022/01/31 09:13:34;;;;;;;47.83;6.40;;;;;;;5.20;78.83;101069.06;5002998;28;20640;-53
2022/01/31 09:16:00;;;;;;;40.72;6.35;;;;;;;5.15;77.59;101078.69;5001025;28;20076;-52
2022/01/31 09:18:26;;;;;;;45.13;6.93;;;;;;;5.15;76.27;101065.63;5003825;28;20064;-49
2022/01/31 09:20:51;;;;;;;41.70;6.97;;;;;;;5.20;75.85;101102.16;5002367;28;20123;-49
2022/01/31 09:23:17;;;;;;;38.65;7.25;;;;;;;5.15;74.90;101123.94;5002369;28;20061;-55
2022/01/31 09:25:46;;;;;;;53.75;6.78;;;;;;;5.13;74.59;101068.25;5003290;28;20037;-47
2022/01/31 09:28:12;;;;;;;47.45;6.72;;;;;;;5.23;74.09;101118.66;5004144;28;20547;-53
2022/01/31 09:30:38;;;;;;;51.10;7.63;;;;;;;5.28;72.93;101089.91;4999185;28;20484;-48
2022/01/31 09:33:04;;;;;;;55.95;6.65;;;;;;;5.35;73.58;101115.09;5002719;28;20440;-51
2022/01/31 09:35:29;;;;;;;52.67;7.30;;;;;;;5.38;72.53;101103.75;5002933;28;20040;-51
2022/01/31 09:37:55;;;;;;;47.33;8.38;;;;;;;5.44;73.27;101106.31;5002427;28;20504;-52
2022/01/31 09:40:23;;;;;;;59.80;6.72;;;;;;;5.48;71.96;101089.72;5016989;28;20043;-49
2022/01/31 09:51:07;;;;;;;57.47;8.18;;;;;;;5.81;68.08;101150.44;4999694;28;20086;-54
2022/01/31 09:53:36;;;;;;;38.28;7.07;;;;;;;5.87;68.84;101118.13;5002077;28;20026;-54
2022/01/31 09:56:03;;;;;;;43.17;6.05;;;;;;;5.96;68.08;101070.09;5001790;28;20033;-55
2022/01/31 09:58:29;;;;;;;48.60;6.68;;;;;;;5.94;67.71;101139.88;5002067;28;20048;-52
2022/01/31 10:01:09;;;;;;;46.35;7.95;;;;;;;6.00;67.61;101168.59;4992542;28;20479;-49
2022/01/31 10:03:52;;;;;;;42.72;6.20;;;;;;;5.99;67.74;101198.22;5002402;28;20307;-54
2022/01/31 10:06:24;;;;;;;40.35;6.15;;;;;;;5.88;67.94;101184.41;5003264;28;20029;-49
2022/01/31 10:09:37;;;;;;;45.88;5.93;;;;;;;5.69;68.95;101180.19;5003367;28;20115;-56
2022/01/31 10:17:37;;;;;;;45.15;6.65;;;;;;;5.43;70.96;101207.41;5002023;28;20121;-52
2022/01/31 10:20:18;;;;;;;44.22;6.25;;;;;;;5.53;69.42;101202.09;4996983;28;20060;-54
2022/01/31 10:22:43;;;;;;;38.20;5.55;;;;;;;5.58;69.81;101236.91;5000344;28;20116;-54
2022/01/31 10:25:11;;;;;;;38.13;6.50;;;;;;;5.65;69.30;101230.78;4999764;28;20170;-52
2022/01/31 10:27:37;;;;;;;53.92;6.40;;;;;;;5.71;70.33;101222.00;5002600;28;20025;-54
2022/01/31 10:30:10;;;;;;;39.03;6.43;;;;;;;5.78;69.32;101213.22;5002567;28;20104;-53
2022/01/31 10:32:37;;;;;;;36.40;5.47;;;;;;;5.86;69.29;101288.16;5001015;28;20046;-55
2022/01/31 10:35:11;;;;;;;45.80;6.30;;;;;;;5.91;69.76;101234.94;5001869;28;20418;-54
2022/01/31 10:37:40;;;;;;;47.90;6.28;;;;;;;5.79;70.70;101271.66;5001651;28;20115;-54
2022/01/31 10:54:09;;;;;;;51.10;7.68;;;;;;;5.82;71.36;101229.78;4996289;28;20045;-54
2022/01/31 10:56:40;;;;;;;48.65;8.23;;;;;;;5.72;72.77;101337.94;4997407;28;20621;-52
2022/01/31 10:59:09;;;;;;;44.83;7.20;;;;;;;5.53;73.87;101263.09;4994733;28;20611;-55
2022/01/31 11:01:37;;;;;;;62.35;8.57;;;;;;;5.43;74.89;101253.56;4983854;28;20021;-55
2022/01/31 11:04:05;;;;;;;55.65;6.85;;;;;;;5.40;73.11;101295.41;4987291;28;20077;-56
2022/01/31 11:06:31;;;;;;;61.10;8.05;;;;;;;5.42;72.83;101263.16;5000586;28;20551;-57
2022/01/31 11:09:03;;;;;;;65.88;8.80;;;;;;;5.50;72.89;101278.78;5000958;28;20033;-57
2022/01/31 11:11:30;;;;;;;51.40;7.65;;;;;;;5.53;72.55;101298.81;5001984;28;20041;-56
2022/01/31 11:13:57;;;;;;;49.72;7.53;;;;;;;5.59;70.84;101283.09;5001774;28;20071;-56
2022/01/31 11:16:23;;;;;;;46.97;6.60;;;;;;;5.71;70.53;101284.75;5004270;28;21360;-54
2022/01/31 11:18:49;;;;;;;53.22;6.70;;;;;;;5.71;69.80;101258.63;4989143;28;20025;-54
2022/01/31 11:21:16;;;;;;;52.67;7.28;;;;;;;5.76;70.02;101322.22;4989600;28;20557;-56
2022/01/31 11:23:49;;;;;;;51.40;6.68;;;;;;;5.75;70.68;101302.16;4997500;28;20124;-51
2022/01/31 11:26:16;;;;;;;59.42;7.55;;;;;;;5.66;71.33;101316.16;5002775;28;20025;-58
2022/01/31 11:28:45;;;;;;;41.42;7.35;;;;;;;5.64;71.89;101288.31;5002444;28;20033;-54
2022/01/31 11:31:10;;;;;;;48.30;7.53;;;;;;;5.58;72.24;101331.03;5005233;28;20108;-54
2022/01/31 11:33:36;;;;;;;60.40;8.68;;;;;;;5.55;72.17;101320.59;5006477;28;20116;-54
2022/01/31 11:36:03;;;;;;;64.93;10.75;;;;;;;5.53;73.55;101312.75;5003077;28;20056;-57
2022/01/31 11:38:28;;;;;;;55.88;9.27;;;;;;;5.43;74.28;101334.59;5005184;28;20514;-59
2022/01/31 11:41:00;;;;;;;45.67;7.18;;;;;;;5.29;74.67;101350.31;5005981;28;20116;-59
2022/01/31 11:43:25;;;;;;;54.92;7.75;;;;;;;5.25;75.33;101341.63;5004996;28;20619;-56
2022/01/31 11:45:51;;;;;;;59.10;8.57;;;;;;;5.29;75.35;101326.78;5002714;28;20113;-57
2022/01/31 11:48:22;;;;;;;56.08;8.13;;;;;;;5.29;74.92;101332.91;5002317;28;20693;-51
2022/01/31 11:50:50;;;;;;;47.42;8.30;;;;;;;5.29;74.39;101345.97;5003769;28;20021;-58
2022/01/31 11:53:16;;;;;;;40.92;7.53;;;;;;;5.33;73.98;101331.16;5017437;28;20028;-55
2022/01/31 11:55:42;;;;;;;43.35;7.30;;;;;;;5.43;72.90;101343.31;5024097;28;20026;-56
2022/01/31 11:58:09;;;;;;;58.60;8.93;;;;;;;5.53;73.08;101327.56;5019713;28;20522;-50
2022/01/31 12:00:39;;;;;;;59.70;7.70;;;;;;;5.61;73.03;101327.53;5026797;28;20033;-54